sensor_id;sensor_type;location;lat;lon;timestamp;pressure;altitude;pressure_sealevel;temperature;humidity
46303;BME280;32029;51.358;5.628;2023-12-04T00:01:17;101006.34;;;4.55;99.84
46303;BME280;32029;51.358;5.628;2023-12-04T00:03:45;101014.22;;;4.58;99.73
46303;BME280;32029;51.358;5.628;2023-12-04T00:06:13;101007.06;;;4.57;99.49
46303;BME280;32029;51.358;5.628;2023-12-04T00:08:41;101014.34;;;4.66;99.74
46303;BME280;32029;51.358;5.628;2023-12-04T00:11:08;100996.59;;;4.62;99.64
46303;BME280;32029;51.358;5.628;2023-12-04T00:13:34;100998.19;;;4.64;99.71
46303;BME280;32029;51.358;5.628;2023-12-04T00:16:01;100997.16;;;4.75;99.91
46303;BME280;32029;51.358;5.628;2023-12-04T00:18:28;101000.00;;;4.83;99.61
46303;BME280;32029;51.358;5.628;2023-12-04T00:20:55;100999.72;;;4.86;99.14
46303;BME280;32029;51.358;5.628;2023-12-04T00:23:21;100986.13;;;4.86;99.18
46303;BME280;32029;51.358;5.628;2023-12-04T00:25:48;100976.53;;;4.82;98.73
46303;BME280;32029;51.358;5.628;2023-12-04T00:28:14;100969.97;;;4.85;98.60
46303;BME280;32029;51.358;5.628;2023-12-04T00:30:42;100960.50;;;4.79;98.16
46303;BME280;32029;51.358;5.628;2023-12-04T00:33:09;100977.06;;;5.05;98.01
46303;BME280;32029;51.358;5.628;2023-12-04T00:35:36;100959.03;;;4.95;97.76
46303;BME280;32029;51.358;5.628;2023-12-04T00:38:03;100989.50;;;5.08;97.99
46303;BME280;32029;51.358;5.628;2023-12-04T00:40:29;100976.16;;;5.14;97.86
46303;BME280;32029;51.358;5.628;2023-12-04T00:42:56;100973.88;;;5.10;97.44
46303;BME280;32029;51.358;5.628;2023-12-04T00:45:23;100957.44;;;5.11;97.00
46303;BME280;32029;51.358;5.628;2023-12-04T00:47:51;100940.13;;;5.03;96.68
46303;BME280;32029;51.358;5.628;2023-12-04T00:50:18;100947.69;;;5.09;96.63
46303;BME280;32029;51.358;5.628;2023-12-04T00:52:45;100961.00;;;5.12;97.03
46303;BME280;32029;51.358;5.628;2023-12-04T00:55:12;100961.84;;;5.12;96.92
46303;BME280;32029;51.358;5.628;2023-12-04T00:57:39;100956.75;;;5.00;97.05
46303;BME280;32029;51.358;5.628;2023-12-04T01:00:06;100967.75;;;5.08;97.09
46303;BME280;32029;51.358;5.628;2023-12-04T01:02:33;100937.56;;;5.01;97.35
46303;BME280;32029;51.358;5.628;2023-12-04T01:05:00;100915.84;;;4.91;97.18
46303;BME280;32029;51.358;5.628;2023-12-04T01:07:27;100958.97;;;5.14;97.01
46303;BME280;32029;51.358;5.628;2023-12-04T01:09:54;100936.09;;;5.07;96.91
46303;BME280;32029;51.358;5.628;2023-12-04T01:12:24;100941.25;;;5.10;96.80
46303;BME280;32029;51.358;5.628;2023-12-04T01:14:51;100928.66;;;5.09;97.04
46303;BME280;32029;51.358;5.628;2023-12-04T01:17:17;100917.97;;;4.98;96.76
46303;BME280;32029;51.358;5.628;2023-12-04T01:19:44;100928.94;;;5.06;96.59
46303;BME280;32029;51.358;5.628;2023-12-04T01:22:13;100932.06;;;5.11;96.55
46303;BME280;32029;51.358;5.628;2023-12-04T01:24:39;100907.81;;;5.00;96.61
46303;BME280;32029;51.358;5.628;2023-12-04T01:27:06;100921.19;;;5.11;96.42
46303;BME280;32029;51.358;5.628;2023-12-04T01:29:33;100933.19;;;5.18;96.12
46303;BME280;32029;51.358;5.628;2023-12-04T01:32:00;100896.34;;;4.96;96.34
46303;BME280;32029;51.358;5.628;2023-12-04T01:34:27;100918.06;;;5.06;96.17
46303;BME280;32029;51.358;5.628;2023-12-04T01:36:54;100906.91;;;4.99;96.32
46303;BME280;32029;51.358;5.628;2023-12-04T01:39:21;100877.41;;;4.77;96.33
46303;BME280;32029;51.358;5.628;2023-12-04T01:41:48;100884.50;;;4.87;96.30
46303;BME280;32029;51.358;5.628;2023-12-04T01:44:15;100917.78;;;5.09;96.08
46303;BME280;32029;51.358;5.628;2023-12-04T01:46:42;100920.50;;;5.09;96.30
46303;BME280;32029;51.358;5.628;2023-12-04T01:49:09;100913.03;;;5.11;96.36
46303;BME280;32029;51.358;5.628;2023-12-04T01:51:36;100916.06;;;5.08;96.52
46303;BME280;32029;51.358;5.628;2023-12-04T01:54:06;100912.03;;;5.12;96.63
46303;BME280;32029;51.358;5.628;2023-12-04T01:56:36;100906.91;;;5.09;96.62
46303;BME280;32029;51.358;5.628;2023-12-04T01:59:03;100872.19;;;4.93;96.61
46303;BME280;32029;51.358;5.628;2023-12-04T02:01:30;100891.59;;;5.08;96.40
46303;BME280;32029;51.358;5.628;2023-12-04T02:03:57;100870.16;;;4.95;96.14
46303;BME280;32029;51.358;5.628;2023-12-04T02:06:27;100878.84;;;5.08;95.99
46303;BME280;32029;51.358;5.628;2023-12-04T02:08:55;100883.09;;;5.11;95.73
46303;BME280;32029;51.358;5.628;2023-12-04T02:11:22;100884.00;;;5.11;95.71
46303;BME280;32029;51.358;5.628;2023-12-04T02:13:50;100864.88;;;4.94;95.68
46303;BME280;32029;51.358;5.628;2023-12-04T02:16:18;100845.72;;;4.85;95.51
46303;BME280;32029;51.358;5.628;2023-12-04T02:18:46;100891.88;;;5.05;95.58
46303;BME280;32029;51.358;5.628;2023-12-04T02:21:13;100878.88;;;4.99;95.78
46303;BME280;32029;51.358;5.628;2023-12-04T02:23:42;100876.88;;;5.01;95.74
46303;BME280;32029;51.358;5.628;2023-12-04T02:26:15;100873.75;;;4.96;96.28
46303;BME280;32029;51.358;5.628;2023-12-04T02:28:46;100846.75;;;4.84;96.27
46303;BME280;32029;51.358;5.628;2023-12-04T02:31:17;100856.72;;;4.94;96.13
46303;BME280;32029;51.358;5.628;2023-12-04T02:33:46;100856.88;;;4.92;95.78
46303;BME280;32029;51.358;5.628;2023-12-04T02:36:15;100845.72;;;4.85;95.97
46303;BME280;32029;51.358;5.628;2023-12-04T02:38:42;100870.72;;;4.99;95.98
46303;BME280;32029;51.358;5.628;2023-12-04T02:41:09;100863.56;;;4.98;96.34
46303;BME280;32029;51.358;5.628;2023-12-04T02:43:36;100849.56;;;4.93;96.08
46303;BME280;32029;51.358;5.628;2023-12-04T02:46:04;100833.16;;;4.84;96.06
46303;BME280;32029;51.358;5.628;2023-12-04T02:48:31;100825.44;;;4.80;95.91
46303;BME280;32029;51.358;5.628;2023-12-04T02:50:58;100846.22;;;4.99;95.95
46303;BME280;32029;51.358;5.628;2023-12-04T02:53:25;100813.28;;;4.84;95.70
46303;BME280;32029;51.358;5.628;2023-12-04T02:55:52;100827.94;;;4.91;95.65
46303;BME280;32029;51.358;5.628;2023-12-04T02:58:19;100845.09;;;5.01;95.56
46303;BME280;32029;51.358;5.628;2023-12-04T03:00:45;100825.41;;;4.89;95.44
46303;BME280;32029;51.358;5.628;2023-12-04T03:03:12;100825.94;;;4.93;95.17
46303;BME280;32029;51.358;5.628;2023-12-04T03:05:39;100833.94;;;4.95;95.38
46303;BME280;32029;51.358;5.628;2023-12-04T03:08:06;100824.09;;;4.94;95.30
46303;BME280;32029;51.358;5.628;2023-12-04T03:10:33;100815.91;;;4.94;95.47
46303;BME280;32029;51.358;5.628;2023-12-04T03:13:01;100819.19;;;4.97;95.51
46303;BME280;32029;51.358;5.628;2023-12-04T03:15:28;100799.69;;;4.84;95.29
46303;BME280;32029;51.358;5.628;2023-12-04T03:17:58;100800.81;;;4.81;95.42
46303;BME280;32029;51.358;5.628;2023-12-04T03:20:26;100810.38;;;4.85;95.13
46303;BME280;32029;51.358;5.628;2023-12-04T03:22:53;100798.09;;;4.81;94.70
46303;BME280;32029;51.358;5.628;2023-12-04T03:25:20;100804.56;;;4.80;94.87
46303;BME280;32029;51.358;5.628;2023-12-04T03:27:47;100779.44;;;4.69;95.15
46303;BME280;32029;51.358;5.628;2023-12-04T03:30:14;100764.56;;;4.63;94.88
46303;BME280;32029;51.358;5.628;2023-12-04T03:32:41;100773.31;;;4.57;94.76
46303;BME280;32029;51.358;5.628;2023-12-04T03:35:10;100758.34;;;4.53;95.16
46303;BME280;32029;51.358;5.628;2023-12-04T03:37:37;100764.91;;;4.50;95.14
46303;BME280;32029;51.358;5.628;2023-12-04T03:40:05;100768.31;;;4.52;95.12
46303;BME280;32029;51.358;5.628;2023-12-04T03:42:32;100738.09;;;4.37;95.14
46303;BME280;32029;51.358;5.628;2023-12-04T03:44:59;100774.03;;;4.59;94.76
46303;BME280;32029;51.358;5.628;2023-12-04T03:47:26;100738.50;;;4.33;95.04
46303;BME280;32029;51.358;5.628;2023-12-04T03:49:53;100735.38;;;4.37;95.05
46303;BME280;32029;51.358;5.628;2023-12-04T03:52:20;100750.94;;;4.45;95.04
46303;BME280;32029;51.358;5.628;2023-12-04T03:54:46;100729.41;;;4.24;94.70
46303;BME280;32029;51.358;5.628;2023-12-04T03:57:16;100726.28;;;4.19;95.22
46303;BME280;32029;51.358;5.628;2023-12-04T03:59:44;100746.06;;;4.39;95.69
46303;BME280;32029;51.358;5.628;2023-12-04T04:02:11;100746.25;;;4.37;95.39
46303;BME280;32029;51.358;5.628;2023-12-04T04:04:38;100743.66;;;4.36;95.59
46303;BME280;32029;51.358;5.628;2023-12-04T04:07:05;100738.38;;;4.34;95.49
46303;BME280;32029;51.358;5.628;2023-12-04T04:09:32;100731.25;;;4.33;95.37
46303;BME280;32029;51.358;5.628;2023-12-04T04:11:59;100708.97;;;4.20;95.36
46303;BME280;32029;51.358;5.628;2023-12-04T04:14:25;100712.41;;;4.22;95.47
46303;BME280;32029;51.358;5.628;2023-12-04T04:16:55;100712.41;;;4.22;95.31
46303;BME280;32029;51.358;5.628;2023-12-04T04:19:25;100719.53;;;4.23;95.53
46303;BME280;32029;51.358;5.628;2023-12-04T04:21:52;100714.97;;;4.24;95.62
46303;BME280;32029;51.358;5.628;2023-12-04T04:24:18;100707.97;;;4.21;95.75
46303;BME280;32029;51.358;5.628;2023-12-04T04:26:45;100700.97;;;4.18;95.58
46303;BME280;32029;51.358;5.628;2023-12-04T04:29:13;100681.88;;;4.10;95.46
46303;BME280;32029;51.358;5.628;2023-12-04T04:31:40;100687.28;;;4.10;95.50
46303;BME280;32029;51.358;5.628;2023-12-04T04:34:06;100692.97;;;4.17;95.27
46303;BME280;32029;51.358;5.628;2023-12-04T04:36:33;100709.81;;;4.30;95.18
46303;BME280;32029;51.358;5.628;2023-12-04T04:39:02;100706.38;;;4.28;95.14
46303;BME280;32029;51.358;5.628;2023-12-04T04:41:29;100697.22;;;4.29;95.01
46303;BME280;32029;51.358;5.628;2023-12-04T04:43:56;100664.56;;;4.11;95.35
46303;BME280;32029;51.358;5.628;2023-12-04T04:46:22;100690.50;;;4.33;94.85
46303;BME280;32029;51.358;5.628;2023-12-04T04:48:52;100670.94;;;4.20;94.77
46303;BME280;32029;51.358;5.628;2023-12-04T04:51:18;100658.66;;;4.16;94.70
46303;BME280;32029;51.358;5.628;2023-12-04T04:53:45;100661.50;;;4.24;94.71
46303;BME280;32029;51.358;5.628;2023-12-04T04:56:12;100684.31;;;4.41;94.45
46303;BME280;32029;51.358;5.628;2023-12-04T04:58:39;100689.56;;;4.42;94.34
46303;BME280;32029;51.358;5.628;2023-12-04T05:01:07;100664.94;;;4.26;94.13
46303;BME280;32029;51.358;5.628;2023-12-04T05:03:34;100688.47;;;4.35;94.11
46303;BME280;32029;51.358;5.628;2023-12-04T05:06:00;100682.72;;;4.38;94.05
46303;BME280;32029;51.358;5.628;2023-12-04T05:08:27;100675.50;;;4.29;94.15
46303;BME280;32029;51.358;5.628;2023-12-04T05:10:54;100679.47;;;4.35;94.19
46303;BME280;32029;51.358;5.628;2023-12-04T05:13:21;100682.72;;;4.38;94.07
46303;BME280;32029;51.358;5.628;2023-12-04T05:15:48;100671.78;;;4.30;94.06
46303;BME280;32029;51.358;5.628;2023-12-04T05:18:15;100679.72;;;4.41;93.91
46303;BME280;32029;51.358;5.628;2023-12-04T05:20:41;100681.44;;;4.42;93.71
46303;BME280;32029;51.358;5.628;2023-12-04T05:23:08;100692.84;;;4.46;93.49
46303;BME280;32029;51.358;5.628;2023-12-04T05:25:35;100637.75;;;4.26;93.60
46303;BME280;32029;51.358;5.628;2023-12-04T05:28:03;100665.50;;;4.48;93.05
46303;BME280;32029;51.358;5.628;2023-12-04T05:30:30;100658.22;;;4.48;93.03
46303;BME280;32029;51.358;5.628;2023-12-04T05:32:57;100647.03;;;4.51;92.82
46303;BME280;32029;51.358;5.628;2023-12-04T05:35:24;100650.47;;;4.53;92.30
46303;BME280;32029;51.358;5.628;2023-12-04T05:37:51;100609.97;;;4.32;92.56
46303;BME280;32029;51.358;5.628;2023-12-04T05:40:19;100648.63;;;4.54;92.82
46303;BME280;32029;51.358;5.628;2023-12-04T05:42:46;100642.00;;;4.56;92.56
46303;BME280;32029;51.358;5.628;2023-12-04T05:45:13;100635.88;;;4.54;91.84
46303;BME280;32029;51.358;5.628;2023-12-04T05:47:39;100593.94;;;4.39;91.41
46303;BME280;32029;51.358;5.628;2023-12-04T05:50:07;100594.09;;;4.37;91.50
46303;BME280;32029;51.358;5.628;2023-12-04T05:52:34;100621.44;;;4.54;91.74
46303;BME280;32029;51.358;5.628;2023-12-04T05:55:00;100575.28;;;4.26;91.83
46303;BME280;32029;51.358;5.628;2023-12-04T05:57:27;100615.00;;;4.55;91.28
46303;BME280;32029;51.358;5.628;2023-12-04T05:59:54;100573.34;;;4.36;90.96
46303;BME280;32029;51.358;5.628;2023-12-04T06:02:21;100578.41;;;4.31;91.27
46303;BME280;32029;51.358;5.628;2023-12-04T06:04:48;100620.03;;;4.50;91.10
46303;BME280;32029;51.358;5.628;2023-12-04T06:07:15;100585.47;;;4.42;90.90
46303;BME280;32029;51.358;5.628;2023-12-04T06:09:41;100590.53;;;4.55;91.14
46303;BME280;32029;51.358;5.628;2023-12-04T06:12:08;100607.09;;;4.61;90.32
46303;BME280;32029;51.358;5.628;2023-12-04T06:14:36;100599.06;;;4.60;90.79
46303;BME280;32029;51.358;5.628;2023-12-04T06:17:05;100591.94;;;4.59;89.84
46303;BME280;32029;51.358;5.628;2023-12-04T06:19:33;100584.53;;;4.51;89.76
46303;BME280;32029;51.358;5.628;2023-12-04T06:22:00;100585.56;;;4.50;89.39
46303;BME280;32029;51.358;5.628;2023-12-04T06:24:28;100566.84;;;4.47;89.56
46303;BME280;32029;51.358;5.628;2023-12-04T06:26:55;100580.13;;;4.68;89.20
46303;BME280;32029;51.358;5.628;2023-12-04T06:29:24;100560.34;;;4.58;89.12
46303;BME280;32029;51.358;5.628;2023-12-04T06:31:52;100543.31;;;4.56;89.11
46303;BME280;32029;51.358;5.628;2023-12-04T06:34:21;100548.16;;;4.62;89.25
46303;BME280;32029;51.358;5.628;2023-12-04T06:36:50;100551.41;;;4.65;88.65
46303;BME280;32029;51.358;5.628;2023-12-04T06:39:18;100554.59;;;4.61;88.74
46303;BME280;32029;51.358;5.628;2023-12-04T06:41:47;100526.63;;;4.51;87.95
46303;BME280;32029;51.358;5.628;2023-12-04T06:44:15;100551.41;;;4.65;87.65
46303;BME280;32029;51.358;5.628;2023-12-04T06:46:47;100540.38;;;4.67;87.77
46303;BME280;32029;51.358;5.628;2023-12-04T06:49:18;100499.38;;;4.42;87.54
46303;BME280;32029;51.358;5.628;2023-12-04T06:51:45;100525.63;;;4.70;87.43
46303;BME280;32029;51.358;5.628;2023-12-04T06:54:13;100529.19;;;4.70;87.08
46303;BME280;32029;51.358;5.628;2023-12-04T06:56:41;100524.69;;;4.61;87.22
46303;BME280;32029;51.358;5.628;2023-12-04T06:59:09;100513.34;;;4.65;87.26
46303;BME280;32029;51.358;5.628;2023-12-04T07:01:36;100503.09;;;4.59;86.55
46303;BME280;32029;51.358;5.628;2023-12-04T07:04:03;100529.41;;;4.59;86.23
46303;BME280;32029;51.358;5.628;2023-12-04T07:06:39;100539.81;;;4.63;86.04
46303;BME280;32029;51.358;5.628;2023-12-04T07:09:08;100540.59;;;4.56;85.70
46303;BME280;32029;51.358;5.628;2023-12-04T07:11:35;100536.91;;;4.57;85.69
46303;BME280;32029;51.358;5.628;2023-12-04T07:14:02;100518.66;;;4.49;85.37
46303;BME280;32029;51.358;5.628;2023-12-04T07:16:29;100490.06;;;4.27;85.31
46303;BME280;32029;51.358;5.628;2023-12-04T07:18:57;100533.16;;;4.58;86.02
46303;BME280;32029;51.358;5.628;2023-12-04T07:21:23;100516.38;;;4.45;85.56
46303;BME280;32029;51.358;5.628;2023-12-04T07:23:52;100531.75;;;4.54;85.86
46303;BME280;32029;51.358;5.628;2023-12-04T07:26:19;100520.66;;;4.47;85.30
46303;BME280;32029;51.358;5.628;2023-12-04T07:28:46;100530.56;;;4.56;85.32
46303;BME280;32029;51.358;5.628;2023-12-04T07:31:13;100513.28;;;4.39;85.15
46303;BME280;32029;51.358;5.628;2023-12-04T07:33:41;100516.72;;;4.41;85.51
46303;BME280;32029;51.358;5.628;2023-12-04T07:36:08;100529.66;;;4.48;85.29
46303;BME280;32029;51.358;5.628;2023-12-04T07:38:36;100528.66;;;4.49;85.41
46303;BME280;32029;51.358;5.628;2023-12-04T07:41:05;100495.88;;;4.32;84.80
46303;BME280;32029;51.358;5.628;2023-12-04T07:43:32;100492.09;;;4.25;84.85
46303;BME280;32029;51.358;5.628;2023-12-04T07:45:59;100526.63;;;4.51;84.64
46303;BME280;32029;51.358;5.628;2023-12-04T07:48:27;100506.13;;;4.38;84.72
46303;BME280;32029;51.358;5.628;2023-12-04T07:50:53;100528.50;;;4.50;84.35
46303;BME280;32029;51.358;5.628;2023-12-04T07:53:20;100503.59;;;4.37;84.31
46303;BME280;32029;51.358;5.628;2023-12-04T07:55:47;100518.41;;;4.42;84.32
46303;BME280;32029;51.358;5.628;2023-12-04T07:58:15;100475.41;;;4.20;84.58
46303;BME280;32029;51.358;5.628;2023-12-04T08:00:44;100508.38;;;4.43;84.22
46303;BME280;32029;51.358;5.628;2023-12-04T08:03:13;100511.66;;;4.47;84.30
46303;BME280;32029;51.358;5.628;2023-12-04T08:05:42;100485.44;;;4.37;84.25
46303;BME280;32029;51.358;5.628;2023-12-04T08:08:10;100505.91;;;4.50;84.42
46303;BME280;32029;51.358;5.628;2023-12-04T08:10:39;100505.69;;;4.61;84.23
46303;BME280;32029;51.358;5.628;2023-12-04T08:13:05;100482.13;;;4.52;84.45
46303;BME280;32029;51.358;5.628;2023-12-04T08:15:34;100495.19;;;4.66;83.97
46303;BME280;32029;51.358;5.628;2023-12-04T08:18:01;100502.00;;;4.70;84.22
46303;BME280;32029;51.358;5.628;2023-12-04T08:20:30;100496.50;;;4.80;83.94
46303;BME280;32029;51.358;5.628;2023-12-04T08:22:58;100501.94;;;4.80;83.51
46303;BME280;32029;51.358;5.628;2023-12-04T08:25:24;100471.09;;;4.71;83.36
46303;BME280;32029;51.358;5.628;2023-12-04T08:27:52;100483.56;;;4.82;83.28
46303;BME280;32029;51.358;5.628;2023-12-04T08:30:19;100500.50;;;4.94;83.53
46303;BME280;32029;51.358;5.628;2023-12-04T08:32:46;100464.00;;;4.78;82.95
46303;BME280;32029;51.358;5.628;2023-12-04T08:35:15;100457.56;;;4.79;82.99
46303;BME280;32029;51.358;5.628;2023-12-04T08:37:41;100462.72;;;4.90;82.72
46303;BME280;32029;51.358;5.628;2023-12-04T08:40:08;100476.06;;;5.02;83.12
46303;BME280;32029;51.358;5.628;2023-12-04T08:42:37;100473.72;;;5.07;82.64
46303;BME280;32029;51.358;5.628;2023-12-04T08:45:09;100458.06;;;5.01;82.25
46303;BME280;32029;51.358;5.628;2023-12-04T08:47:36;100453.78;;;4.98;82.46
46303;BME280;32029;51.358;5.628;2023-12-04T08:50:04;100445.31;;;5.01;82.15
46303;BME280;32029;51.358;5.628;2023-12-04T08:52:32;100428.25;;;4.91;82.39
46303;BME280;32029;51.358;5.628;2023-12-04T08:54:59;100442.16;;;5.14;81.85
46303;BME280;32029;51.358;5.628;2023-12-04T08:57:27;100457.97;;;5.19;81.58
46303;BME280;32029;51.358;5.628;2023-12-04T08:59:57;100427.34;;;5.08;81.73
46303;BME280;32029;51.358;5.628;2023-12-04T09:02:25;100440.34;;;5.23;81.80
46303;BME280;32029;51.358;5.628;2023-12-04T09:04:52;100450.34;;;5.22;81.49
46303;BME280;32029;51.358;5.628;2023-12-04T09:07:18;100447.25;;;5.17;81.46
46303;BME280;32029;51.358;5.628;2023-12-04T09:09:45;100447.31;;;5.25;82.15
46303;BME280;32029;51.358;5.628;2023-12-04T09:12:12;100444.94;;;5.30;81.72
46303;BME280;32029;51.358;5.628;2023-12-04T09:14:39;100433.06;;;5.31;81.80
46303;BME280;32029;51.358;5.628;2023-12-04T09:17:07;100419.09;;;5.26;81.57
46303;BME280;32029;51.358;5.628;2023-12-04T09:19:34;100434.81;;;5.40;81.41
46303;BME280;32029;51.358;5.628;2023-12-04T09:22:01;100411.09;;;5.25;81.69
46303;BME280;32029;51.358;5.628;2023-12-04T09:24:28;100348.22;;;4.94;81.22
46303;BME280;32029;51.358;5.628;2023-12-04T09:26:56;100438.06;;;5.44;81.03
46303;BME280;32029;51.358;5.628;2023-12-04T09:29:23;100406.22;;;5.36;81.33
46303;BME280;32029;51.358;5.628;2023-12-04T09:31:51;100428.88;;;5.45;81.28
46303;BME280;32029;51.358;5.628;2023-12-04T09:34:18;100434.16;;;5.47;80.49
46303;BME280;32029;51.358;5.628;2023-12-04T09:36:47;100387.09;;;5.20;80.73
46303;BME280;32029;51.358;5.628;2023-12-04T09:39:15;100413.22;;;5.39;80.79
46303;BME280;32029;51.358;5.628;2023-12-04T09:41:44;100432.28;;;5.47;80.40
46303;BME280;32029;51.358;5.628;2023-12-04T09:44:11;100415.44;;;5.44;80.41
46303;BME280;32029;51.358;5.628;2023-12-04T09:46:38;100412.72;;;5.44;80.67
46303;BME280;32029;51.358;5.628;2023-12-04T09:49:08;100366.38;;;5.19;80.94
46303;BME280;32029;51.358;5.628;2023-12-04T09:51:36;100408.81;;;5.46;80.93
46303;BME280;32029;51.358;5.628;2023-12-04T09:54:04;100414.13;;;5.56;81.05
46303;BME280;32029;51.358;5.628;2023-12-04T09:56:33;100406.28;;;5.61;80.61
46303;BME280;32029;51.358;5.628;2023-12-04T09:59:00;100412.13;;;5.74;80.93
46303;BME280;32029;51.358;5.628;2023-12-04T10:01:29;100404.97;;;5.73;80.55
46303;BME280;32029;51.358;5.628;2023-12-04T10:03:57;100404.63;;;5.76;80.28
46303;BME280;32029;51.358;5.628;2023-12-04T10:06:28;100400.19;;;5.67;80.64
46303;BME280;32029;51.358;5.628;2023-12-04T10:08:58;100389.13;;;5.69;80.89
46303;BME280;32029;51.358;5.628;2023-12-04T10:11:25;100402.78;;;5.85;80.63
46303;BME280;32029;51.358;5.628;2023-12-04T10:13:54;100393.75;;;5.84;80.49
46303;BME280;32029;51.358;5.628;2023-12-04T10:16:33;100395.19;;;5.97;80.70
46303;BME280;32029;51.358;5.628;2023-12-04T10:19:25;100403.38;;;6.05;81.40
46303;BME280;32029;51.358;5.628;2023-12-04T10:21:55;100399.47;;;6.16;81.09
46303;BME280;32029;51.358;5.628;2023-12-04T10:24:33;100376.81;;;6.15;80.47
46303;BME280;32029;51.358;5.628;2023-12-04T10:27:08;100386.34;;;6.35;80.96
46303;BME280;32029;51.358;5.628;2023-12-04T10:29:45;100355.00;;;6.31;80.26
46303;BME280;32029;51.358;5.628;2023-12-04T10:32:18;100366.59;;;6.42;80.08
46303;BME280;32029;51.358;5.628;2023-12-04T10:34:50;100356.03;;;6.38;79.77
46303;BME280;32029;51.358;5.628;2023-12-04T10:37:17;100359.78;;;6.54;79.62
46303;BME280;32029;51.358;5.628;2023-12-04T10:39:51;100345.81;;;6.49;79.82
46303;BME280;32029;51.358;5.628;2023-12-04T10:42:25;100359.75;;;6.62;80.19
46303;BME280;32029;51.358;5.628;2023-12-04T10:44:55;100323.66;;;6.52;80.08
46303;BME280;32029;51.358;5.628;2023-12-04T10:47:22;100341.16;;;6.74;79.73
46303;BME280;32029;51.358;5.628;2023-12-04T10:49:51;100324.63;;;6.75;79.01
46303;BME280;32029;51.358;5.628;2023-12-04T10:52:18;100324.97;;;6.72;79.28
46303;BME280;32029;51.358;5.628;2023-12-04T10:54:49;100324.44;;;6.85;79.47
46303;BME280;32029;51.358;5.628;2023-12-04T10:57:26;100319.81;;;6.85;79.33
46303;BME280;32029;51.358;5.628;2023-12-04T11:00:01;100280.84;;;6.69;78.77
46303;BME280;32029;51.358;5.628;2023-12-04T11:02:33;100312.31;;;6.87;79.28
46303;BME280;32029;51.358;5.628;2023-12-04T11:05:13;100307.22;;;6.84;79.48
46303;BME280;32029;51.358;5.628;2023-12-04T11:07:50;100304.28;;;6.86;79.80
46303;BME280;32029;51.358;5.628;2023-12-04T11:10:24;100291.53;;;6.86;79.81
46303;BME280;32029;51.358;5.628;2023-12-04T11:12:58;100302.41;;;6.95;79.69
46303;BME280;32029;51.358;5.628;2023-12-04T11:15:29;100301.88;;;6.99;79.99
46303;BME280;32029;51.358;5.628;2023-12-04T11:17:59;100289.78;;;6.94;79.12
46303;BME280;32029;51.358;5.628;2023-12-04T11:20:29;100278.53;;;6.97;79.69
46303;BME280;32029;51.358;5.628;2023-12-04T11:22:58;100294.19;;;7.03;80.07
46303;BME280;32029;51.358;5.628;2023-12-04T11:25:25;100273.91;;;6.97;79.93
46303;BME280;32029;51.358;5.628;2023-12-04T11:27:54;100220.22;;;6.58;79.84
46303;BME280;32029;51.358;5.628;2023-12-04T11:30:22;100289.09;;;7.00;80.01
46303;BME280;32029;51.358;5.628;2023-12-04T11:32:49;100254.00;;;6.88;80.23
46303;BME280;32029;51.358;5.628;2023-12-04T11:35:18;100239.88;;;6.85;80.96
46303;BME280;32029;51.358;5.628;2023-12-04T11:37:46;100262.44;;;7.10;79.93
46303;BME280;32029;51.358;5.628;2023-12-04T11:40:15;100261.81;;;7.00;80.69
46303;BME280;32029;51.358;5.628;2023-12-04T11:42:42;100255.63;;;7.06;80.78
46303;BME280;32029;51.358;5.628;2023-12-04T11:45:10;100250.22;;;6.98;80.69
46303;BME280;32029;51.358;5.628;2023-12-04T11:47:57;100229.13;;;6.92;81.26
46303;BME280;32029;51.358;5.628;2023-12-04T11:50:25;100216.91;;;6.79;81.64
46303;BME280;32029;51.358;5.628;2023-12-04T11:52:52;100207.00;;;6.78;81.98
46303;BME280;32029;51.358;5.628;2023-12-04T11:55:21;100203.31;;;6.71;82.65
46303;BME280;32029;51.358;5.628;2023-12-04T11:57:50;100178.31;;;6.51;83.44
46303;BME280;32029;51.358;5.628;2023-12-04T12:00:19;100210.13;;;6.75;84.04
46303;BME280;32029;51.358;5.628;2023-12-04T12:03:09;100195.03;;;6.56;83.65
46303;BME280;32029;51.358;5.628;2023-12-04T12:05:37;100201.59;;;6.70;84.08
46303;BME280;32029;51.358;5.628;2023-12-04T12:08:08;100158.78;;;6.39;84.33
46303;BME280;32029;51.358;5.628;2023-12-04T12:10:35;100163.34;;;6.47;84.27
46303;BME280;32029;51.358;5.628;2023-12-04T12:13:02;100173.03;;;6.58;84.46
46303;BME280;32029;51.358;5.628;2023-12-04T12:15:30;100173.75;;;6.52;84.97
46303;BME280;32029;51.358;5.628;2023-12-04T12:17:57;100164.22;;;6.48;84.69
46303;BME280;32029;51.358;5.628;2023-12-04T12:20:24;100146.19;;;6.38;84.79
46303;BME280;32029;51.358;5.628;2023-12-04T12:22:51;100139.69;;;6.39;84.89
46303;BME280;32029;51.358;5.628;2023-12-04T12:25:19;100157.78;;;6.41;85.67
46303;BME280;32029;51.358;5.628;2023-12-04T12:27:46;100153.56;;;6.30;85.69
46303;BME280;32029;51.358;5.628;2023-12-04T12:30:14;100153.56;;;6.30;86.18
46303;BME280;32029;51.358;5.628;2023-12-04T12:32:41;100135.72;;;6.19;86.22
46303;BME280;32029;51.358;5.628;2023-12-04T12:35:09;100096.63;;;5.96;86.35
46303;BME280;32029;51.358;5.628;2023-12-04T12:37:38;100156.56;;;6.43;86.19
46303;BME280;32029;51.358;5.628;2023-12-04T12:40:06;100132.22;;;6.42;86.12
46303;BME280;32029;51.358;5.628;2023-12-04T12:42:36;100088.41;;;6.12;86.44
46303;BME280;32029;51.358;5.628;2023-12-04T12:45:08;100138.16;;;6.45;86.33
46303;BME280;32029;51.358;5.628;2023-12-04T12:47:40;100101.97;;;6.28;86.36
46303;BME280;32029;51.358;5.628;2023-12-04T12:50:09;100137.31;;;6.45;86.45
46303;BME280;32029;51.358;5.628;2023-12-04T12:52:40;100111.31;;;6.34;87.00
46303;BME280;32029;51.358;5.628;2023-12-04T12:55:07;100118.25;;;6.45;87.07
46303;BME280;32029;51.358;5.628;2023-12-04T12:57:34;100089.53;;;6.26;87.26
46303;BME280;32029;51.358;5.628;2023-12-04T13:00:01;100035.69;;;5.97;87.47
46303;BME280;32029;51.358;5.628;2023-12-04T13:02:28;100090.88;;;6.30;87.44
46303;BME280;32029;51.358;5.628;2023-12-04T13:04:55;100097.31;;;6.37;87.85